Time;durP1;ratioP1;P1;durP2;ratioP2;P2;SDS_P1;SDS_P2;PMS_P1;PMS_P2;Temp;Humidity;BMP_temperature;BMP_pressure;BME280_temperature;BME280_humidity;BME280_pressure;Samples;Min_cycle;Max_cycle;Signal;HPM_P1;HPM_P2
2024/01/16 00:01:37;;;;;;;64.20;28.80;;;;;;;1.16;79.77;98350.00;4953778;29;20097;-33
2024/01/16 00:04:03;;;;;;;70.03;30.05;;;;;;;1.02;80.28;98346.34;4954414;29;20114;-32
2024/01/16 00:06:28;;;;;;;63.88;28.30;;;;;;;1.01;80.89;98343.91;4954276;29;20031;-32
2024/01/16 00:08:54;;;;;;;60.33;28.67;;;;;;;0.97;80.70;98340.81;4952957;29;20020;-33
2024/01/16 00:11:19;;;;;;;69.53;29.60;;;;;;;0.99;79.85;98338.84;4953803;29;20038;-32
2024/01/16 00:13:44;;;;;;;66.18;29.23;;;;;;;1.19;79.09;98333.94;4954039;29;20027;-31
2024/01/16 00:16:10;;;;;;;61.60;27.63;;;;;;;1.50;78.28;98338.22;4954431;29;20027;-33
2024/01/16 00:18:35;;;;;;;64.43;28.27;;;;;;;1.28;79.76;98337.31;4954810;29;20412;-32
2024/01/16 00:21:02;;;;;;;57.97;26.90;;;;;;;1.22;79.80;98341.44;4954620;29;20415;-33
2024/01/16 00:23:28;;;;;;;62.08;27.77;;;;;;;1.32;79.46;98343.81;4954714;29;20023;-33
2024/01/16 00:25:53;;;;;;;57.33;27.05;;;;;;;1.43;78.81;98348.63;4954484;29;20092;-33
2024/01/16 00:28:19;;;;;;;53.08;27.13;;;;;;;1.32;80.04;98342.00;4954004;29;20491;-32
2024/01/16 00:30:45;;;;;;;61.50;26.67;;;;;;;1.48;78.19;98348.88;4954186;29;20038;-32
2024/01/16 00:33:12;;;;;;;65.50;28.42;;;;;;;1.61;78.42;98350.09;4954180;29;20115;-32
2024/01/16 00:35:37;;;;;;;57.33;26.85;;;;;;;1.78;77.73;98358.59;4953975;29;20035;-32
2024/01/16 00:38:03;;;;;;;64.25;26.88;;;;;;;1.64;77.40;98349.69;4952882;28;20032;-32
2024/01/16 00:40:28;;;;;;;59.55;27.17;;;;;;;1.60;76.75;98337.94;4954058;29;20376;-32
2024/01/16 00:42:53;;;;;;;57.83;25.92;;;;;;;1.47;78.67;98363.00;4953963;29;20051;-33
2024/01/16 00:45:19;;;;;;;57.70;27.35;;;;;;;1.38;79.17;98369.31;4953600;29;20027;-32
2024/01/16 00:47:44;;;;;;;61.47;27.77;;;;;;;1.45;78.42;98349.25;4953658;29;20093;-32
2024/01/16 00:50:10;;;;;;;58.40;26.75;;;;;;;1.39;77.88;98354.38;4952843;29;20118;-32
2024/01/16 00:52:35;;;;;;;61.35;26.55;;;;;;;1.51;78.53;98343.28;4952763;29;20027;-32
2024/01/16 00:55:01;;;;;;;56.65;26.77;;;;;;;1.46;77.96;98329.91;4953547;29;20023;-33
2024/01/16 00:57:26;;;;;;;63.10;26.90;;;;;;;1.38;77.39;98332.59;4953342;29;20027;-33
2024/01/16 00:59:52;;;;;;;66.03;27.38;;;;;;;1.29;77.14;98337.09;4954199;29;20027;-33
2024/01/16 01:02:17;;;;;;;55.88;26.63;;;;;;;1.10;78.53;98342.84;4953601;29;20058;-32
2024/01/16 01:04:43;;;;;;;58.30;26.65;;;;;;;1.44;77.51;98338.94;4953916;29;20027;-31
2024/01/16 01:07:08;;;;;;;57.28;26.83;;;;;;;1.34;77.85;98333.97;4954047;29;20457;-33
2024/01/16 01:09:33;;;;;;;58.08;27.65;;;;;;;1.27;79.00;98325.97;4953590;29;20030;-32
2024/01/16 01:11:59;;;;;;;61.10;28.58;;;;;;;1.21;78.42;98320.66;4953206;29;20019;-32
2024/01/16 01:14:26;;;;;;;63.72;26.55;;;;;;;1.21;79.65;98318.03;4952252;29;20027;-31
2024/01/16 01:16:51;;;;;;;62.85;27.70;;;;;;;1.07;80.35;98325.69;4952070;29;20051;-32
2024/01/16 01:19:17;;;;;;;57.45;28.05;;;;;;;1.22;78.89;98317.03;4952104;29;20058;-32
2024/01/16 01:21:43;;;;;;;62.75;28.20;;;;;;;1.29;77.53;98310.06;4951669;29;20019;-32
2024/01/16 01:24:09;;;;;;;61.28;27.23;;;;;;;1.11;78.87;98316.47;4951968;29;20464;-32
2024/01/16 01:26:34;;;;;;;59.78;27.08;;;;;;;1.14;79.01;98302.19;4952220;29;20046;-33
2024/01/16 01:28:59;;;;;;;59.20;28.13;;;;;;;1.22;76.65;98296.06;4952654;29;20031;-33
2024/01/16 01:31:25;;;;;;;61.95;28.00;;;;;;;1.29;76.11;98291.72;4935856;29;20408;-33
2024/01/16 01:33:50;;;;;;;65.53;28.83;;;;;;;1.56;73.86;98285.03;4953040;29;20035;-33
2024/01/16 01:36:16;;;;;;;55.22;25.30;;;;;;;1.38;75.48;98285.41;4952838;29;20055;-33
2024/01/16 01:38:41;;;;;;;57.95;27.55;;;;;;;1.58;74.85;98283.09;4953242;29;20440;-33
2024/01/16 01:41:06;;;;;;;64.13;28.30;;;;;;;1.59;75.42;98287.31;4952709;29;20031;-32
2024/01/16 01:43:32;;;;;;;63.00;27.48;;;;;;;1.47;74.25;98294.03;4952712;29;20118;-31
2024/01/16 01:46:14;;;;;;;56.40;26.65;;;;;;;1.23;75.94;98295.88;4952878;29;20031;-32
2024/01/16 01:48:43;;;;;;;60.17;26.40;;;;;;;1.21;77.33;98294.44;4952488;28;20019;-31
2024/01/16 01:51:13;;;;;;;59.30;26.10;;;;;;;1.28;75.65;98308.47;4952665;29;20106;-32
2024/01/16 01:53:39;;;;;;;63.22;27.98;;;;;;;1.67;73.20;98310.81;4952460;29;20262;-32
2024/01/16 01:56:08;;;;;;;61.15;26.88;;;;;;;0.97;76.59;98301.50;4952569;29;20066;-33
2024/01/16 01:58:34;;;;;;;57.43;25.60;;;;;;;1.58;72.64;98311.09;4952874;29;20027;-32
2024/01/16 02:01:02;;;;;;;66.47;27.60;;;;;;;1.76;70.89;98308.94;4952547;29;20023;-32
2024/01/16 02:03:29;;;;;;;63.67;26.65;;;;;;;1.23;74.16;98300.31;4952681;29;20098;-32
2024/01/16 02:05:55;;;;;;;65.57;28.20;;;;;;;1.54;72.13;98301.00;4952515;29;20031;-33
2024/01/16 02:08:22;;;;;;;73.43;28.98;;;;;;;1.47;74.64;98300.06;4951732;29;20328;-32
2024/01/16 02:10:49;;;;;;;73.22;30.10;;;;;;;1.39;73.54;98304.56;4952173;29;20102;-32
2024/01/16 02:13:15;;;;;;;71.80;28.52;;;;;;;1.63;72.15;98303.50;4952056;29;20138;-31
2024/01/16 02:15:41;;;;;;;70.00;28.98;;;;;;;1.67;71.26;98302.16;4952198;29;20032;-32
2024/01/16 02:18:07;;;;;;;68.55;28.48;;;;;;;1.78;70.99;98303.50;4952400;29;20059;-33
2024/01/16 02:20:32;;;;;;;69.28;26.15;;;;;;;1.55;72.56;98294.72;4952212;29;20023;-32
2024/01/16 02:23:03;;;;;;;61.83;26.02;;;;;;;2.27;68.97;98301.06;4952012;29;20042;-32
2024/01/16 02:25:29;;;;;;;56.25;24.90;;;;;;;1.81;70.88;98313.63;4952417;29;20027;-33
2024/01/16 02:27:54;;;;;;;59.15;26.90;;;;;;;1.52;70.25;98325.75;4952580;29;20034;-33
2024/01/16 02:30:19;;;;;;;57.83;26.25;;;;;;;1.27;72.05;98319.94;4952270;29;20062;-33
2024/01/16 02:32:45;;;;;;;56.63;26.50;;;;;;;1.50;71.37;98320.66;4951882;29;20102;-33
2024/01/16 02:35:10;;;;;;;68.95;27.77;;;;;;;1.28;74.12;98321.56;4951946;29;20086;-33
2024/01/16 02:37:36;;;;;;;58.35;26.00;;;;;;;1.62;70.58;98318.44;4952241;29;20031;-33
2024/01/16 02:40:05;;;;;;;59.38;25.50;;;;;;;1.95;68.97;98318.84;4952539;29;20044;-33
2024/01/16 02:42:33;;;;;;;57.50;25.92;;;;;;;1.81;70.46;98322.31;4951964;29;20023;-33
2024/01/16 02:44:59;;;;;;;58.53;25.10;;;;;;;1.54;71.48;98319.34;4952135;29;20481;-32
2024/01/16 02:47:24;;;;;;;48.00;23.05;;;;;;;1.75;71.16;98323.88;4952339;29;20205;-34
2024/01/16 02:49:50;;;;;;;50.30;24.05;;;;;;;1.71;71.75;98314.72;4952275;29;20490;-33
2024/01/16 02:52:15;;;;;;;52.60;25.33;;;;;;;2.17;68.70;98305.81;4951945;29;20030;-33
2024/01/16 02:54:41;;;;;;;61.05;26.77;;;;;;;1.93;68.91;98312.97;4952158;29;20499;-33
2024/01/16 02:57:06;;;;;;;65.82;26.73;;;;;;;1.56;71.68;98324.38;4951955;29;20039;-32
2024/01/16 02:59:32;;;;;;;63.97;27.55;;;;;;;1.64;70.52;98340.06;4952085;28;20411;-22
2024/01/16 03:01:57;;;;;;;59.17;26.50;;;;;;;1.76;70.27;98322.84;4955212;29;20034;-22
2024/01/16 03:04:23;;;;;;;57.80;26.50;;;;;;;1.88;69.60;98328.44;4955576;29;20034;-22
2024/01/16 03:06:48;;;;;;;56.60;25.90;;;;;;;1.55;70.63;98328.81;4955582;29;20460;-21
2024/01/16 03:09:14;;;;;;;61.03;26.65;;;;;;;1.81;73.50;98348.56;4955585;29;20106;-23
2024/01/16 03:11:39;;;;;;;62.70;27.50;;;;;;;2.51;71.97;98327.97;4955361;29;20098;-21
2024/01/16 03:14:05;;;;;;;61.25;27.90;;;;;;;2.94;70.71;98326.16;4955754;29;20451;-21
2024/01/16 03:16:31;;;;;;;63.75;27.52;;;;;;;3.09;70.79;98339.25;4955368;29;20023;-21
2024/01/16 03:18:57;;;;;;;66.22;27.77;;;;;;;2.57;73.13;98337.75;4955367;29;20094;-20
2024/01/16 03:21:23;;;;;;;54.33;25.65;;;;;;;2.29;73.00;98346.31;4955119;29;20019;-23
2024/01/16 03:23:48;;;;;;;56.75;25.42;;;;;;;1.65;72.72;98343.47;4953864;29;20163;-23
2024/01/16 03:26:14;;;;;;;59.58;28.38;;;;;;;2.35;73.26;98340.34;4955681;29;20404;-23
2024/01/16 03:28:40;;;;;;;56.35;26.70;;;;;;;2.30;77.18;98336.63;4955233;29;20031;-23
2024/01/16 03:31:06;;;;;;;60.83;27.35;;;;;;;1.65;74.16;98335.59;4954980;29;20587;-24
2024/01/16 03:33:31;;;;;;;53.92;26.30;;;;;;;1.94;75.71;98330.38;4954865;29;20058;-21
2024/01/16 03:35:57;;;;;;;58.25;26.27;;;;;;;2.17;75.91;98321.56;4954723;29;20023;-22
2024/01/16 03:38:22;;;;;;;54.55;25.02;;;;;;;1.73;77.20;98340.75;4955025;29;20114;-22
2024/01/16 03:40:47;;;;;;;56.15;25.77;;;;;;;1.52;77.28;98341.47;4955062;29;20059;-22
2024/01/16 03:43:13;;;;;;;61.30;27.60;;;;;;;2.23;74.06;98346.22;4938918;29;20373;-24
2024/01/16 03:45:39;;;;;;;56.95;25.48;;;;;;;2.00;78.26;98354.22;4935984;29;20062;-22
2024/01/16 03:48:04;;;;;;;55.83;25.95;;;;;;;1.49;76.41;98349.72;4935376;29;20098;-23
2024/01/16 03:50:30;;;;;;;58.78;26.17;;;;;;;1.45;76.98;98359.75;4935621;29;20083;-23
2024/01/16 03:52:55;;;;;;;58.63;27.70;;;;;;;1.84;75.93;98373.59;4943058;29;20511;-22
2024/01/16 03:55:21;;;;;;;60.85;27.15;;;;;;;2.52;73.19;98369.81;4942035;29;20236;-24
2024/01/16 03:57:46;;;;;;;64.43;26.13;;;;;;;2.07;74.73;98374.31;4952889;29;20023;-24
2024/01/16 04:00:12;;;;;;;55.78;25.77;;;;;;;1.57;74.35;98373.22;4954608;29;20105;-21
2024/01/16 04:02:38;;;;;;;60.15;26.70;;;;;;;1.69;75.46;98391.94;4948741;29;20016;-23
2024/01/16 04:05:04;;;;;;;56.35;26.05;;;;;;;1.24;75.58;98402.34;4951990;29;20459;-22
2024/01/16 04:07:30;;;;;;;62.38;28.00;;;;;;;1.36;77.48;98398.31;4954630;29;20472;-20
2024/01/16 04:09:55;;;;;;;62.33;28.02;;;;;;;1.96;75.76;98403.63;4955370;29;20098;-24
2024/01/16 04:12:21;;;;;;;68.53;29.30;;;;;;;1.79;75.19;98403.00;4954432;28;20413;-22
2024/01/16 04:14:46;;;;;;;59.92;27.67;;;;;;;1.53;76.43;98414.72;4954762;29;20538;-22
2024/01/16 04:17:12;;;;;;;62.47;27.25;;;;;;;1.07;75.36;98421.81;4937600;29;20110;-20
2024/01/16 04:19:37;;;;;;;65.47;28.27;;;;;;;0.63;77.70;98420.63;4954415;29;20475;-20
2024/01/16 04:22:04;;;;;;;66.70;27.80;;;;;;;0.33;80.96;98425.66;4954403;29;20038;-22
2024/01/16 04:24:29;;;;;;;69.50;29.05;;;;;;;0.52;81.25;98431.47;4954825;29;20058;-23
2024/01/16 04:26:55;;;;;;;68.10;29.48;;;;;;;0.53;80.83;98433.09;4954182;29;20059;-23
2024/01/16 04:29:20;;;;;;;65.55;29.10;;;;;;;0.52;83.63;98442.75;4954202;29;20484;-21
2024/01/16 04:31:45;;;;;;;67.65;29.63;;;;;;;0.74;81.18;98438.56;4953979;29;20407;-21
2024/01/16 04:34:11;;;;;;;65.20;29.45;;;;;;;0.49;81.25;98424.75;4953558;29;20089;-23
2024/01/16 04:36:36;;;;;;;61.20;28.15;;;;;;;0.95;80.63;98437.94;4953039;29;20039;-22
2024/01/16 04:39:03;;;;;;;64.63;28.80;;;;;;;0.67;80.58;98440.22;4953440;29;20710;-22
2024/01/16 04:41:28;;;;;;;62.67;29.90;;;;;;;0.60;81.17;98441.88;4953925;29;20090;-22
2024/01/16 04:43:54;;;;;;;65.60;29.08;;;;;;;0.47;82.35;98446.84;4953726;29;20039;-21
2024/01/16 04:46:19;;;;;;;60.10;27.98;;;;;;;0.57;82.24;98460.53;4952551;29;20031;-21
2024/01/16 04:48:44;;;;;;;62.75;27.70;;;;;;;0.53;81.46;98454.88;4952512;29;20094;-23
2024/01/16 04:51:10;;;;;;;65.28;27.83;;;;;;;0.65;80.73;98457.91;4952825;29;20133;-22
2024/01/16 04:53:36;;;;;;;66.18;29.17;;;;;;;0.64;81.50;98458.06;4952686;29;20118;-22
2024/01/16 04:56:01;;;;;;;67.50;28.33;;;;;;;0.43;81.68;98466.50;4952419;29;20482;-21
2024/01/16 04:58:26;;;;;;;62.50;29.92;;;;;;;0.61;82.26;98474.94;4952849;29;20054;-23
2024/01/16 05:00:52;;;;;;;62.83;28.48;;;;;;;0.65;81.77;98484.09;4953670;29;20029;-21
2024/01/16 05:03:17;;;;;;;67.70;30.63;;;;;;;0.77;81.67;98474.06;4953310;29;20067;-22
2024/01/16 05:05:43;;;;;;;61.92;29.30;;;;;;;0.97;81.24;98479.66;4934860;29;20035;-21
2024/01/16 05:08:08;;;;;;;63.33;26.40;;;;;;;2.54;95.76;98501.75;4935116;29;20035;-22
2024/01/16 05:10:34;;;;;;;54.63;25.73;;;;;;;4.36;89.84;98510.38;4934823;29;20488;-23
2024/01/16 05:12:59;;;;;;;57.28;27.00;;;;;;;5.17;76.88;98501.84;4934790;29;20038;-23
2024/01/16 05:15:24;;;;;;;51.17;23.63;;;;;;;5.64;73.65;98508.81;4934359;29;20148;-21
2024/01/16 05:17:50;;;;;;;51.03;24.85;;;;;;;5.61;69.67;98505.78;4934673;29;20023;-23
2024/01/16 05:20:15;;;;;;;55.17;25.85;;;;;;;4.41;66.71;98510.63;4934365;29;20027;-23
2024/01/16 05:22:40;;;;;;;54.35;24.83;;;;;;;3.35;69.07;98514.03;4933883;29;20114;-21
2024/01/16 05:25:07;;;;;;;46.30;22.73;;;;;;;2.46;71.82;98520.25;4934646;29;20023;-23
2024/01/16 05:27:33;;;;;;;52.70;24.23;;;;;;;2.25;73.24;98533.28;4934624;29;20028;-23
2024/01/16 05:29:58;;;;;;;51.80;23.73;;;;;;;1.95;74.91;98527.97;4952639;29;20043;-24
2024/01/16 05:32:24;;;;;;;50.33;21.13;;;;;;;1.68;75.05;98542.47;4953687;29;20678;-23
2024/01/16 05:34:50;;;;;;;37.20;18.65;;;;;;;1.63;75.20;98545.59;4953631;29;20467;-23
2024/01/16 05:37:15;;;;;;;44.42;20.38;;;;;;;1.39;75.77;98540.50;4953863;29;20106;-24
2024/01/16 05:39:41;;;;;;;40.03;18.45;;;;;;;1.68;75.42;98556.38;4953806;29;20050;-23
2024/01/16 05:42:06;;;;;;;33.92;17.45;;;;;;;1.89;74.63;98563.59;4953701;29;20407;-22
2024/01/16 05:44:31;;;;;;;38.28;17.65;;;;;;;1.56;74.78;98569.09;4953257;29;20349;-22
2024/01/16 05:46:57;;;;;;;33.33;16.70;;;;;;;1.60;75.18;98572.19;4953117;29;20118;-22
2024/01/16 05:49:22;;;;;;;30.10;15.02;;;;;;;1.79;74.37;98583.19;4953023;29;20031;-21
2024/01/16 05:51:48;;;;;;;33.70;16.60;;;;;;;1.80;78.51;98588.25;4953479;29;20023;-23
2024/01/16 05:54:13;;;;;;;33.45;15.38;;;;;;;1.87;74.75;98601.50;4953376;29;20173;-22
2024/01/16 05:56:38;;;;;;;31.25;16.33;;;;;;;1.98;74.10;98606.34;4953275;29;20038;-23
2024/01/16 05:59:04;;;;;;;35.22;17.25;;;;;;;1.89;74.10;98608.19;4953043;29;20467;-23
2024/01/16 06:01:30;;;;;;;32.65;16.20;;;;;;;2.06;76.33;98605.47;4951993;29;20031;-22
2024/01/16 06:03:55;;;;;;;36.97;17.83;;;;;;;2.64;72.87;98611.00;4952267;29;20141;-22
2024/01/16 06:06:20;;;;;;;37.40;17.73;;;;;;;2.95;70.30;98616.06;4951352;29;20026;-23
2024/01/16 06:08:46;;;;;;;37.33;17.45;;;;;;;3.29;69.31;98620.78;4951501;29;20055;-23
2024/01/16 06:11:12;;;;;;;37.42;17.75;;;;;;;3.50;68.73;98627.06;4951679;29;20546;-24
2024/01/16 06:13:37;;;;;;;37.80;17.77;;;;;;;4.10;66.96;98635.59;4943269;29;20062;-20
2024/01/16 06:16:05;;;;;;;38.13;17.48;;;;;;;4.46;65.96;98635.50;4942751;29;20456;-22
2024/01/16 06:18:31;;;;;;;34.70;17.02;;;;;;;4.70;64.71;98650.06;4943597;29;20027;-21
2024/01/16 06:20:56;;;;;;;37.28;16.67;;;;;;;4.99;67.65;98652.66;4935135;29;20027;-22
2024/01/16 06:23:21;;;;;;;30.33;14.23;;;;;;;4.33;71.44;98666.19;4934203;29;20031;-22
2024/01/16 06:25:47;;;;;;;28.83;13.10;;;;;;;4.49;71.47;98677.28;4934353;29;20028;-23
2024/01/16 06:28:12;;;;;;;22.85;11.57;;;;;;;5.04;69.60;98693.28;4933697;29;20460;-22
2024/01/16 06:30:37;;;;;;;22.95;10.20;;;;;;;5.28;69.67;98702.56;4943421;29;20063;-21
2024/01/16 06:33:03;;;;;;;15.50;8.20;;;;;;;5.63;69.44;98701.69;4941446;29;20047;-23
2024/01/16 06:35:28;;;;;;;13.68;7.78;;;;;;;5.67;69.60;98709.06;4945409;28;20036;-24
2024/01/16 06:37:54;;;;;;;15.15;8.20;;;;;;;5.77;69.59;98710.47;4947101;29;20032;-21
2024/01/16 06:40:19;;;;;;;12.65;7.50;;;;;;;6.01;69.55;98711.81;4946747;29;20043;-23
2024/01/16 06:42:44;;;;;;;13.48;7.10;;;;;;;6.35;68.50;98707.44;4951638;29;20404;-24
2024/01/16 06:45:12;;;;;;;14.10;7.05;;;;;;;6.50;68.56;98709.88;4956836;29;20031;-24
2024/01/16 06:47:38;;;;;;;12.15;6.72;;;;;;;6.68;67.75;98712.72;4957049;29;20031;-22
2024/01/16 06:50:03;;;;;;;11.07;6.22;;;;;;;7.07;67.04;98720.88;4956911;29;20417;-22
2024/01/16 06:52:29;;;;;;;9.77;6.03;;;;;;;7.57;65.54;98737.84;4956787;29;20027;-23
2024/01/16 06:54:54;;;;;;;10.88;5.57;;;;;;;7.24;66.64;98738.75;4956710;29;20031;-21
2024/01/16 06:57:20;;;;;;;11.13;6.07;;;;;;;7.39;67.17;98743.81;4956930;29;20023;-21
2024/01/16 06:59:46;;;;;;;12.77;5.88;;;;;;;7.55;66.47;98752.31;4956467;29;20495;-21
2024/01/16 07:02:11;;;;;;;9.82;5.45;;;;;;;7.57;66.68;98759.03;4956143;29;20148;-22
2024/01/16 07:04:36;;;;;;;9.30;5.10;;;;;;;7.89;65.95;98766.28;4956475;29;20110;-22
2024/01/16 07:07:02;;;;;;;8.82;5.15;;;;;;;8.01;64.75;98783.97;4956260;29;20070;-23
2024/01/16 07:09:28;;;;;;;8.70;4.95;;;;;;;8.16;64.82;98785.50;4956000;29;20027;-23
2024/01/16 07:11:53;;;;;;;7.20;4.75;;;;;;;7.73;66.06;98791.38;4956255;29;20491;-23
2024/01/16 07:14:19;;;;;;;9.07;4.57;;;;;;;7.85;65.73;98796.88;4955507;29;20031;-21
2024/01/16 07:16:45;;;;;;;7.63;4.45;;;;;;;7.90;65.39;98797.03;4955630;29;20038;-20
2024/01/16 07:19:11;;;;;;;7.25;4.78;;;;;;;8.01;65.72;98822.88;4955629;29;20034;-22
2024/01/16 07:21:37;;;;;;;8.32;4.57;;;;;;;8.28;64.64;98830.72;4954651;29;20031;-23
2024/01/16 07:24:03;;;;;;;8.25;4.22;;;;;;;7.97;65.40;98829.63;4955661;29;20392;-21
2024/01/16 07:26:29;;;;;;;7.30;4.72;;;;;;;8.26;64.61;98840.72;4953555;29;20110;-23
2024/01/16 07:28:54;;;;;;;9.23;5.00;;;;;;;8.32;64.75;98853.13;4954795;29;20503;-22
2024/01/16 07:31:20;;;;;;;8.80;5.25;;;;;;;8.17;65.47;98848.91;4954749;29;20139;-23
2024/01/16 07:33:45;;;;;;;8.13;5.10;;;;;;;8.18;65.64;98847.88;4954800;29;20041;-22
2024/01/16 07:36:11;;;;;;;7.43;4.57;;;;;;;8.34;65.24;98864.34;4954958;29;20062;-21
2024/01/16 07:38:37;;;;;;;10.25;4.90;;;;;;;8.14;65.81;98861.78;4955300;29;20240;-19
2024/01/16 07:41:03;;;;;;;8.02;4.35;;;;;;;8.05;66.43;98878.91;4955267;29;20381;-25
2024/01/16 07:43:31;;;;;;;7.30;4.10;;;;;;;8.14;66.13;98883.78;4955264;29;20035;-21
2024/01/16 07:45:57;;;;;;;7.20;4.00;;;;;;;8.31;64.56;98891.28;4954294;28;20035;-24
2024/01/16 07:48:22;;;;;;;7.90;4.15;;;;;;;8.14;65.06;98901.53;4954984;29;20399;-21
2024/01/16 07:50:48;;;;;;;7.25;3.90;;;;;;;8.25;64.29;98902.72;4955545;29;20038;-22
2024/01/16 07:53:15;;;;;;;7.60;4.43;;;;;;;8.18;64.53;98914.13;4955017;29;20023;-22
2024/01/16 07:55:40;;;;;;;7.15;4.30;;;;;;;8.18;64.26;98923.94;4955035;29;20514;-23
2024/01/16 07:58:06;;;;;;;7.60;4.78;;;;;;;7.96;64.60;98939.28;4955360;29;20053;-22
2024/01/16 08:00:31;;;;;;;7.05;4.07;;;;;;;8.08;64.39;98948.22;4954888;29;20069;-24
2024/01/16 08:02:57;;;;;;;7.10;4.35;;;;;;;8.22;63.71;98946.34;4954586;29;20104;-22
2024/01/16 08:05:25;;;;;;;8.20;4.15;;;;;;;8.47;62.74;98959.75;4955170;29;20447;-23
2024/01/16 08:07:51;;;;;;;5.78;3.80;;;;;;;8.13;63.80;98961.66;4955007;29;20027;-21
2024/01/16 08:10:16;;;;;;;8.70;4.05;;;;;;;7.84;64.18;98965.56;4955022;29;20031;-24
2024/01/16 08:12:41;;;;;;;5.65;3.42;;;;;;;7.82;64.33;98965.78;4955060;29;20459;-22
2024/01/16 08:15:10;;;;;;;9.45;3.97;;;;;;;7.94;63.84;98962.50;4954711;29;20023;-25
2024/01/16 08:17:35;;;;;;;9.70;4.18;;;;;;;7.82;66.11;98962.28;4954791;29;20070;-22
2024/01/16 08:20:01;;;;;;;5.28;3.92;;;;;;;7.44;67.60;98969.03;4954962;29;20035;-22
2024/01/16 08:22:26;;;;;;;7.03;3.75;;;;;;;7.66;66.04;98970.66;4954814;29;20074;-22
2024/01/16 08:24:52;;;;;;;12.82;4.03;;;;;;;7.56;65.61;98963.94;4954639;29;20027;-22
2024/01/16 08:27:17;;;;;;;8.30;4.15;;;;;;;7.52;64.79;98965.38;4954927;29;20066;-22
2024/01/16 08:29:42;;;;;;;8.02;3.47;;;;;;;7.78;63.85;98975.13;4954623;29;20038;-25
2024/01/16 08:32:08;;;;;;;11.00;3.97;;;;;;;7.89;63.76;98989.59;4954435;29;20132;-22
2024/01/16 08:34:33;;;;;;;7.18;3.35;;;;;;;7.84;63.51;98984.09;4954474;29;20043;-22
2024/01/16 08:36:59;;;;;;;8.35;4.00;;;;;;;7.76;63.97;98992.25;4954284;29;20118;-23
2024/01/16 08:39:24;;;;;;;6.43;3.45;;;;;;;7.83;63.53;98998.38;4954279;29;20031;-20
2024/01/16 08:41:50;;;;;;;9.98;3.78;;;;;;;8.22;62.22;98999.34;4954102;29;20480;-25
2024/01/16 08:44:16;;;;;;;11.65;3.40;;;;;;;8.48;61.13;99009.13;4954102;29;20059;-21
2024/01/16 08:46:41;;;;;;;4.43;2.90;;;;;;;8.02;61.06;99021.41;4953928;29;20432;-23
2024/01/16 08:49:06;;;;;;;4.63;3.00;;;;;;;7.81;61.57;99032.22;4953996;29;20031;-23
2024/01/16 08:51:32;;;;;;;9.70;3.20;;;;;;;8.14;60.73;99036.69;4954286;29;20027;-24
2024/01/16 08:53:57;;;;;;;9.77;3.15;;;;;;;8.20;60.21;99039.31;4954260;29;20078;-32
2024/01/16 08:56:22;;;;;;;4.75;3.40;;;;;;;8.19;60.27;99050.16;4954271;29;20393;-23
2024/01/16 08:58:48;;;;;;;5.65;3.20;;;;;;;8.31;59.87;99059.09;4952923;28;20040;-24
2024/01/16 09:01:13;;;;;;;7.22;3.70;;;;;;;8.30;59.42;99060.13;4953991;29;20023;-23
2024/01/16 09:03:38;;;;;;;5.75;3.35;;;;;;;8.40;59.18;99057.88;4953748;29;20030;-22
2024/01/16 09:06:04;;;;;;;5.53;3.30;;;;;;;8.34;58.49;99063.16;4953881;29;20062;-24
2024/01/16 09:08:29;;;;;;;9.05;3.45;;;;;;;8.21;58.85;99064.00;4953765;29;20035;-21
2024/01/16 09:10:56;;;;;;;4.20;2.90;;;;;;;8.01;59.04;99074.59;4953662;29;20131;-25
2024/01/16 09:13:23;;;;;;;4.72;3.30;;;;;;;8.47;58.55;99076.44;4953379;29;20030;-24
2024/01/16 09:15:49;;;;;;;9.63;3.25;;;;;;;8.57;57.64;99079.50;4953268;29;20169;-21
2024/01/16 09:18:17;;;;;;;8.88;4.03;;;;;;;8.69;57.07;99068.25;4953743;29;20412;-22
2024/01/16 09:20:43;;;;;;;10.07;3.65;;;;;;;8.59;57.13;99069.50;4953595;29;20023;-23
2024/01/16 09:23:09;;;;;;;5.53;3.00;;;;;;;9.15;55.86;99083.22;4953469;29;20041;-22
2024/01/16 09:25:35;;;;;;;6.50;4.53;;;;;;;9.48;54.97;99084.91;4953569;29;20272;-23
2024/01/16 09:28:01;;;;;;;5.82;2.83;;;;;;;9.05;54.91;99094.28;4953885;29;20478;-24
2024/01/16 09:30:26;;;;;;;3.75;2.40;;;;;;;9.06;54.53;99090.59;4953041;29;20027;-21
2024/01/16 09:32:52;;;;;;;5.97;2.65;;;;;;;8.84;54.04;99083.94;4953169;29;20468;-26
2024/01/16 09:35:17;;;;;;;3.42;2.20;;;;;;;9.50;52.38;99098.78;4953118;29;20062;-24
2024/01/16 09:37:42;;;;;;;6.00;2.88;;;;;;;9.55;51.79;99104.28;4953516;29;20385;-25
2024/01/16 09:40:08;;;;;;;7.35;2.70;;;;;;;9.34;50.90;99111.53;4936230;29;20058;-22
2024/01/16 09:42:34;;;;;;;5.60;2.35;;;;;;;9.46;50.34;99109.06;4952926;29;20031;-24
2024/01/16 09:45:03;;;;;;;7.05;2.90;;;;;;;9.82;49.48;99109.47;4953218;29;20027;-22
2024/01/16 09:47:33;;;;;;;4.13;2.10;;;;;;;9.44;49.96;99107.63;4953471;29;20476;-23
2024/01/16 09:50:02;;;;;;;8.30;3.72;;;;;;;9.27;49.70;99094.84;4953553;29;20089;-25
2024/01/16 09:52:29;;;;;;;6.85;2.45;;;;;;;9.57;48.94;99111.00;4953077;29;20078;-22
2024/01/16 09:54:54;;;;;;;8.82;2.60;;;;;;;9.95;48.09;99112.84;4952762;29;20027;-23
2024/01/16 09:57:23;;;;;;;5.82;3.58;;;;;;;10.44;47.14;99113.13;4952641;29;20086;-22
2024/01/16 09:59:48;;;;;;;4.32;2.67;;;;;;;10.57;46.34;99118.34;4953078;29;20049;-23
2024/01/16 10:02:14;;;;;;;4.80;2.40;;;;;;;10.39;46.03;99122.78;4945524;29;20489;-25
2024/01/16 10:04:42;;;;;;;3.53;2.25;;;;;;;10.10;46.10;99133.81;4933928;29;20028;-23
2024/01/16 10:07:10;;;;;;;7.20;2.47;;;;;;;9.93;46.50;99109.59;4933991;29;20111;-24
2024/01/16 10:09:35;;;;;;;3.28;2.08;;;;;;;10.58;44.93;99132.44;4933370;29;20043;-23
2024/01/16 10:12:02;;;;;;;4.45;2.08;;;;;;;10.34;45.45;99131.44;4933909;29;20046;-22
2024/01/16 10:14:28;;;;;;;6.03;2.10;;;;;;;10.86;44.70;99134.66;4933605;29;20024;-22
2024/01/16 10:17:09;;;;;;;6.07;2.10;;;;;;;11.29;42.62;99141.78;4933644;29;20059;-24
2024/01/16 10:19:34;;;;;;;8.65;2.20;;;;;;;11.71;41.63;99144.53;4933695;29;20142;-23
2024/01/16 10:22:04;;;;;;;6.72;2.35;;;;;;;11.32;42.26;99138.66;4933271;29;20106;-23
2024/01/16 10:24:30;;;;;;;3.50;2.50;;;;;;;10.95;42.50;99151.97;4933663;29;20052;-22
2024/01/16 10:27:03;;;;;;;5.65;2.35;;;;;;;10.72;43.68;99141.94;4933623;29;20070;-22
2024/01/16 10:29:32;;;;;;;2.85;1.92;;;;;;;10.33;43.76;99159.03;4933573;29;20024;-20
2024/01/16 10:31:58;;;;;;;4.40;2.20;;;;;;;10.64;43.75;99147.56;4933178;29;20039;-24
2024/01/16 10:34:24;;;;;;;4.60;2.13;;;;;;;10.34;44.60;99147.38;4933881;29;20058;-20
2024/01/16 10:36:52;;;;;;;4.20;2.17;;;;;;;10.31;43.76;99148.63;4933411;29;20024;-22
2024/01/16 10:39:18;;;;;;;5.03;2.20;;;;;;;10.82;43.36;99156.59;4933466;29;20412;-23
2024/01/16 10:42:14;;;;;;;10.80;2.67;;;;;;;10.48;43.29;99158.72;4933609;29;20468;-25
2024/01/16 10:44:54;;;;;;;10.32;2.40;;;;;;;9.97;44.35;99142.69;4910302;29;20036;-25
2024/01/16 10:47:21;;;;;;;3.45;2.10;;;;;;;9.96;44.44;99149.03;4933047;29;20524;-22
2024/01/16 10:49:47;;;;;;;5.35;2.10;;;;;;;10.02;43.89;99160.66;4933359;29;20091;-24
2024/01/16 10:52:12;;;;;;;5.55;2.38;;;;;;;10.14;44.70;99155.47;4933277;29;20032;-24
2024/01/16 10:54:41;;;;;;;7.18;2.30;;;;;;;10.00;44.54;99148.63;4933271;29;20027;-23
2024/01/16 10:57:07;;;;;;;6.63;2.63;;;;;;;10.27;44.46;99160.69;4933379;29;20023;-21
2024/01/16 10:59:59;;;;;;;3.05;1.98;;;;;;;9.93;44.09;99160.09;4933084;29;20051;-24
2024/01/16 11:02:32;;;;;;;2.45;1.90;;;;;;;9.68;44.39;99154.69;4928689;29;20428;-22
2024/01/16 11:04:58;;;;;;;2.83;2.03;;;;;;;9.77;45.55;99137.50;4952191;29;20122;-22
2024/01/16 11:07:26;;;;;;;8.90;2.25;;;;;;;9.57;45.38;99155.38;4952166;29;20117;-25
2024/01/16 11:09:52;;;;;;;4.18;1.90;;;;;;;9.78;44.98;99162.22;4952654;29;20447;-22
2024/01/16 11:12:22;;;;;;;4.53;2.20;;;;;;;9.77;44.63;99158.75;4952468;29;20031;-20
2024/01/16 11:14:51;;;;;;;6.68;2.10;;;;;;;9.39;45.20;99150.75;4952361;29;20027;-22
2024/01/16 11:17:19;;;;;;;;;;;;;;;9.68;44.96;99161.88;4952502;29;20518;-23
2024/01/16 11:19:46;;;;;;;3.85;1.80;;;;;;;9.71;44.21;99167.56;4952069;29;19952;-23
2024/01/16 11:22:13;;;;;;;1.98;1.50;;;;;;;9.32;45.20;99168.53;4954254;28;20114;-24
2024/01/16 11:24:38;;;;;;;6.05;1.92;;;;;;;9.45;44.37;99162.38;4955066;29;20380;-22
2024/01/16 11:27:04;;;;;;;2.72;1.70;;;;;;;9.65;44.07;99160.44;4955583;29;20029;-23